This is the latest recevied weather packets stored in our database for station/object PY1LEO-13. If no packets are shown the sender has not sent any weather packets the latest 10 day(s).
| Time | Temp. | Humidity | Pressure | Rain* | Wind** | Luminosity | Snow |
|---|---|---|---|---|---|---|---|
| 1777560061 | 30.56° C | 55% | 1016 hPa | - | - | - | - |
| 1777559761 | 30.56° C | 55% | 1015.9 hPa | - | - | - | - |
| 1777559461 | 29.44° C | 58% | 1016 hPa | - | - | - | - |
| 1777559160 | 30° C | 57% | 1016 hPa | - | - | - | - |
| 1777558861 | 30° C | 56% | 1016.1 hPa | - | - | - | - |
| 1777558561 | 30° C | 58% | 1016.1 hPa | - | - | - | - |
| 1777558261 | 29.44° C | 58% | 1016.1 hPa | - | - | - | - |
| 1777557961 | 30° C | 58% | 1016.2 hPa | - | - | - | - |
| 1777557661 | 29.44° C | 59% | 1016.4 hPa | - | - | - | - |
| 1777557361 | 29.44° C | 59% | 1016.4 hPa | - | - | - | - |
| 1777557061 | 29.44° C | 58% | 1016.5 hPa | - | - | - | - |
| 1777556761 | 30° C | 57% | 1016.4 hPa | - | - | - | - |
| 1777556461 | 29.44° C | 59% | 1016.4 hPa | - | - | - | - |
| 1777556160 | 29.44° C | 60% | 1016.5 hPa | - | - | - | - |
| 1777555861 | 29.44° C | 60% | 1016.5 hPa | - | - | - | - |
| 1777555561 | 30° C | 59% | 1016.4 hPa | - | - | - | - |
| 1777555260 | 30° C | 60% | 1016.2 hPa | - | - | - | - |
| 1777554961 | 30° C | 58% | 1016.1 hPa | - | - | - | - |
| 1777554661 | 29.44° C | 59% | 1016.1 hPa | - | - | - | - |
| 1777554361 | 30° C | 58% | 1016.1 hPa | - | - | - | - |
| 1777554061 | 29.44° C | 58% | 1015.9 hPa | - | - | - | - |
| 1777553761 | 28.89° C | 61% | 1016 hPa | - | - | - | - |
| 1777553461 | 28.89° C | 60% | 1016.2 hPa | - | - | - | - |
| 1777553161 | 29.44° C | 58% | 1016.2 hPa | - | - | - | - |
| 1777552861 | 28.33° C | 62% | 1016.2 hPa | - | - | - | - |
* Rain since midnight (hover to see other rain measurements)
** Current wind speed in m/s (hover to see current wind gust speed)